EW0172 Bagheria IT current weather conditions

sailwx.info

Wind from 194 at 0 knots gusting 2

Air temperature 15.6° C
Dewpoint 11.1° C

Last reported at 2019-Dec-05 20:00 UTC.
Time now 2019-Dec-05 20:23 UTC

Location: N 38°05' E 013°30'.
View on Google Maps.

See reports from other nearby stations

  
Tides and Currents Weather Stations Pressure Air Temp Water Temp Dewpoint Dewpoint Depression Visibility Wind Speed Wind Dir Waves Ship Positions
date/time (UTC)wind fromknots sea level pressurealtimeterstation pressurevisibilityair tempwater tempwave heightnotes
2019-Dec-05 20:00 194 0 gusting 2 15.6
2019-Dec-05 19:45 184 1 gusting 2 15.6
2019-Dec-05 19:30 198 1 gusting 2 15.6
2019-Dec-05 19:15 209 1 gusting 2 15.6
2019-Dec-05 19:00 202 1 gusting 2 15.6
2019-Dec-05 18:45 210 1 gusting 2 15.6
2019-Dec-05 18:30 182 1 gusting 2 15.6
2019-Dec-05 18:15 172 0 gusting 2 15.6
2019-Dec-05 18:00 098 1 gusting 2 15.6
2019-Dec-05 17:45 215 1 gusting 2 15.6
2019-Dec-05 17:30 239 2 gusting 3 16.1
2019-Dec-05 17:15 222 1 gusting 2 16.1
2019-Dec-05 17:00 201 1 gusting 1 16.1
2019-Dec-05 16:45 230 0 gusting 1 16.1
2019-Dec-05 16:30 243 1 gusting 2 16.1
2019-Dec-05 16:15 207 1 gusting 3 16.1
2019-Dec-05 16:00 231 2 gusting 3 16.7
2019-Dec-05 15:45 205 1 gusting 1 16.7
2019-Dec-05 15:30 225 1 gusting 2 17.2
2019-Dec-05 15:15 075 0 gusting 1 17.2
2019-Dec-05 15:00 282 0 gusting 1 17.2
2019-Dec-05 14:45 094 3 gusting 6 17.2
2019-Dec-05 14:30 342 1 gusting 1 17.2
2019-Dec-05 14:15 346 2 gusting 3 17.2
2019-Dec-05 14:00 055 2 gusting 5 17.8
2019-Dec-05 13:45 010 0 gusting 2 17.8
2019-Dec-05 13:30 016 1 gusting 3 17.8
2019-Dec-05 13:15 060 1 gusting 3 18.3
2019-Dec-05 13:00 056 2 gusting 3 17.8
2019-Dec-05 12:45 192 0 gusting 1 17.8
2019-Dec-05 12:30 181 1 gusting 2 17.8
2019-Dec-05 12:15 179 2 gusting 3 17.8
2019-Dec-05 12:00 083 3 gusting 4 17.8
2019-Dec-05 11:45 104 3 gusting 4 17.8
2019-Dec-05 11:30 352 0 gusting 1 18.3
2019-Dec-05 11:15 034 0 gusting 2 18.3
2019-Dec-05 11:00 020 18.3
2019-Dec-05 10:45 208 1 gusting 5 18.3
2019-Dec-05 10:30 181 3 gusting 5 18.3
2019-Dec-05 10:15 074 1 gusting 3 18.3
2019-Dec-05 10:00 111 3 gusting 4 18.3
2019-Dec-05 09:45 180 5 gusting 7 17.8
2019-Dec-05 09:30 190 5 gusting 6 17.2
2019-Dec-05 09:15 182 6 gusting 9 16.7
2019-Dec-05 09:00 206 6 gusting 9 16.1
2019-Dec-05 08:45 208 6 gusting 10 16.1
2019-Dec-05 08:30 203 9 gusting 13 15.6
2019-Dec-05 08:15 206 10 gusting 13 15.6
2019-Dec-05 08:00 226 9 gusting 13 15.0
2019-Dec-05 07:45 234 4 gusting 6 15.6
2019-Dec-05 07:30 202 6 gusting 12 15.0
2019-Dec-05 07:15 219 9 gusting 11 15.0
2019-Dec-05 07:00 214 12 gusting 13 15.0
2019-Dec-05 06:45 208 12 gusting 13 15.0
2019-Dec-05 06:30 202 11 gusting 16 15.0
2019-Dec-05 06:15 225 12 gusting 15 15.6
2019-Dec-05 06:00 221 11 gusting 15 15.6
2019-Dec-05 05:45 213 8 gusting 12 15.6
2019-Dec-05 05:30 214 11 gusting 13 15.6
2019-Dec-05 05:15 220 9 gusting 12 15.6
2019-Dec-05 05:00 213 8 gusting 11 15.6
2019-Dec-05 04:45 192 10 gusting 12 15.6
2019-Dec-05 04:30 195 9 gusting 15 15.6
2019-Dec-05 04:15 201 12 gusting 16 15.6
2019-Dec-05 04:00 216 12 gusting 14 16.1
2019-Dec-05 03:45 180 12 gusting 19 15.6
2019-Dec-05 03:30 207 14 gusting 21 16.1
2019-Dec-05 03:15 209 10 gusting 13 16.1
2019-Dec-05 03:00 222 7 gusting 8 16.1
2019-Dec-05 02:45 199 8 gusting 13 16.1
2019-Dec-05 02:30 198 5 gusting 7 15.6
2019-Dec-05 02:15 148 6 gusting 8 15.6
2019-Dec-05 02:00 194 8 gusting 12 15.6
2019-Dec-05 01:45 206 8 gusting 13 15.6
2019-Dec-05 01:30 190 12 gusting 13 15.6
2019-Dec-05 01:15 207 12 gusting 16 15.6
2019-Dec-05 01:00 208 10 gusting 15 15.6
2019-Dec-05 00:45 209 12 gusting 15 16.1
2019-Dec-05 00:30 183 10 gusting 13 16.1
2019-Dec-05 00:15 212 10 gusting 17 16.1
2019-Dec-05 00:00 183 13 gusting 16 16.1
2019-Dec-04 23:45 227 8 gusting 10 16.1
2019-Dec-04 23:30 228 10 gusting 13 16.1
2019-Dec-04 23:00 199 11 gusting 13 16.1
2019-Dec-04 22:45 186 12 gusting 16 16.1
2019-Dec-04 22:30 181 7 gusting 13 16.1
2019-Dec-04 22:15 208 9 gusting 13 16.7
2019-Dec-04 22:00 182 13 gusting 18 16.7
2019-Dec-04 21:45 218 16 gusting 25 16.7
2019-Dec-04 21:30 229 11 gusting 13 16.7
2019-Dec-04 21:15 248 13 gusting 24 16.7
2019-Dec-04 21:00 198 16 gusting 25 16.7
2019-Dec-04 20:45 208 13 gusting 18 16.7
2019-Dec-04 20:30 212 13 gusting 16 16.7
2019-Dec-04 20:15 184 12 gusting 20 16.7
2019-Dec-04 20:00 204 13 gusting 16 17.8
2019-Dec-04 19:45 218 10 gusting 17 17.8
2019-Dec-04 19:30 199 11 gusting 12 17.2
2019-Dec-04 19:15 203 17 gusting 21 16.7
2019-Dec-04 19:00 187 16 gusting 24 17.2
2019-Dec-04 18:45 208 11 gusting 16 17.2
2019-Dec-04 18:30 209 13 gusting 16 17.2
2019-Dec-04 18:15 166 13 gusting 19 17.2
2019-Dec-04 18:00 189 18 gusting 29 17.2
2019-Dec-04 17:45 180 12 gusting 16 17.2
2019-Dec-04 17:30 183 15 gusting 19 17.2
2019-Dec-04 17:15 195 13 gusting 16 17.2
2019-Dec-04 17:00 198 12 gusting 17 17.2
2019-Dec-04 16:45 231 10 gusting 17 17.2
2019-Dec-04 16:30 318 1 gusting 4 17.2
2019-Dec-04 16:15 206 9 gusting 13 17.2
2019-Dec-04 16:00 197 16 gusting 21 17.2
2019-Dec-04 15:45 194 12 gusting 14 17.2
2019-Dec-04 15:30 187 9 gusting 11 17.2
2019-Dec-04 15:15 117 4 gusting 6 17.2
2019-Dec-04 15:00 140 3 gusting 6 17.2
2019-Dec-04 14:45 190 5 gusting 8 17.2
2019-Dec-04 14:30 077 3 gusting 5 17.2
2019-Dec-04 14:15 131 4 gusting 6 17.2
2019-Dec-04 14:00 109 4 gusting 6 17.2
2019-Dec-04 13:45 092 6 gusting 7 17.8
2019-Dec-04 13:30 083 6 gusting 9 18.3
2019-Dec-04 13:15 063 6 gusting 8 18.3
2019-Dec-04 13:00 102 6 gusting 8 18.3
2019-Dec-04 12:45 060 7 gusting 9 18.3
2019-Dec-04 12:30 081 6 gusting 8 18.3
2019-Dec-04 12:15 074 6 gusting 8 18.3
2019-Dec-04 12:00 101 6 gusting 7 18.3
2019-Dec-04 11:45 078 5 gusting 6 18.9
2019-Dec-04 11:30 074 4 gusting 6 18.3
2019-Dec-04 11:15 076 5 gusting 6 18.3
2019-Dec-04 11:00 067 5 gusting 7 17.8
2019-Dec-04 10:45 080 4 gusting 6 17.8
2019-Dec-04 10:30 093 3 gusting 5 17.8
2019-Dec-04 10:15 080 3 gusting 5 17.8
2019-Dec-04 10:00 093 4 gusting 6 17.8
2019-Dec-04 09:45 085 3 gusting 4 17.2
2019-Dec-04 09:30 073 4 gusting 5 17.2
2019-Dec-04 09:15 080 4 gusting 6 17.2
2019-Dec-04 09:00 090 4 gusting 6 16.7
2019-Dec-04 08:45 077 2 gusting 5 16.7
2019-Dec-04 08:30 130 3 gusting 6 16.1
2019-Dec-04 08:15 148 3 gusting 6 16.1
2019-Dec-04 08:00 156 4 gusting 6 15.6
2019-Dec-04 07:45 203 4 gusting 6 15.6
2019-Dec-04 07:30 162 4 gusting 5 15.0
2019-Dec-04 07:15 207 6 gusting 9 15.0
2019-Dec-04 07:00 186 6 gusting 10 15.0
2019-Dec-04 06:45 188 7 gusting 10 15.0
2019-Dec-04 06:30 171 6 gusting 11 15.0
2019-Dec-04 06:15 212 7 gusting 9 15.0
2019-Dec-04 06:00 206 6 gusting 13 15.0
2019-Dec-04 05:45 186 6 gusting 8 15.0
2019-Dec-04 05:30 186 6 gusting 11 15.0
2019-Dec-04 05:15 207 6 gusting 8 15.0
2019-Dec-04 05:00 206 5 gusting 8 15.0
2019-Dec-04 04:45 127 2 gusting 6 14.4
2019-Dec-04 04:30 130 1 gusting 2 14.4
2019-Dec-04 04:15 153 2 gusting 4 14.4
2019-Dec-04 04:00 080 2 gusting 3 14.4
2019-Dec-04 03:45 109 1 gusting 3 14.4
2019-Dec-04 03:30 159 2 gusting 4 14.4
2019-Dec-04 03:15 111 1 gusting 4 14.4
2019-Dec-04 03:00 125 2 gusting 4 15.0
2019-Dec-04 02:45 139 3 gusting 4 15.0
2019-Dec-04 02:30 147 4 gusting 6 15.0
2019-Dec-04 02:15 148 3 gusting 6 15.6
2019-Dec-04 01:45 074 1 gusting 2 15.0
2019-Dec-04 01:30 122 1 gusting 3 15.0
2019-Dec-04 01:15 207 2 gusting 4 15.0
2019-Dec-04 01:00 104 1 gusting 3 15.0
2019-Dec-04 00:45 062 1 gusting 2 15.0
2019-Dec-04 00:30 024 0 gusting 2 15.0
2019-Dec-04 00:15 286 0 gusting 1 15.0
2019-Dec-04 00:00 122 0 gusting 1 15.0
2019-Dec-03 23:45 211 0 gusting 1 15.0
2019-Dec-03 23:30 164 0 gusting 1 15.0
2019-Dec-03 23:15 138 1 gusting 2 15.0
2019-Dec-03 23:00 180 1 gusting 2 15.0
2019-Dec-03 22:45 154 1 gusting 2 15.0
2019-Dec-03 22:30 145 1 gusting 2 15.6
2019-Dec-03 22:15 172 0 gusting 1 15.6
2019-Dec-03 22:00 180 15.6
2019-Dec-03 21:45 208 0 gusting 1 15.6
2019-Dec-03 21:30 164 0 gusting 1 15.6
2019-Dec-03 21:15 187 1 gusting 1 15.6
2019-Dec-03 21:00 139 0 gusting 1 15.6
2019-Dec-03 20:45 198 0 gusting 2 15.6
2019-Dec-03 20:30 165 1 gusting 2 16.1
2019-Dec-03 20:15 195 0 gusting 2 16.1
2019-Dec-03 20:00 213 16.1